createdAt,value
2018-12-10T00:01:51.183Z,3.65
2018-12-10T00:04:22.129Z,3.10
2018-12-10T00:06:53.647Z,3.30
2018-12-10T00:09:22.651Z,2.92
2018-12-10T00:11:51.721Z,3.22
2018-12-10T00:14:21.904Z,2.77
2018-12-10T00:16:50.772Z,2.77
2018-12-10T00:19:19.650Z,2.98
2018-12-10T00:21:48.645Z,2.37
2018-12-10T00:24:17.707Z,2.90
2018-12-10T00:26:46.759Z,2.35
2018-12-10T00:29:15.633Z,1.80
2018-12-10T00:31:44.571Z,1.95
2018-12-10T00:34:13.627Z,1.82
2018-12-10T00:36:42.589Z,1.67
2018-12-10T00:39:11.499Z,1.70
2018-12-10T00:41:40.404Z,2.00
2018-12-10T00:44:09.496Z,2.02
2018-12-10T00:46:38.471Z,1.70
2018-12-10T00:49:07.387Z,2.22
2018-12-10T00:51:36.280Z,1.85
2018-12-10T00:54:05.323Z,2.10
2018-12-10T00:56:34.286Z,2.27
2018-12-10T00:59:03.386Z,2.30
2018-12-10T01:01:32.324Z,2.47
2018-12-10T01:04:01.536Z,2.35
2018-12-10T01:06:30.521Z,2.40
2018-12-10T01:08:59.456Z,2.35
2018-12-10T01:11:28.557Z,2.62
2018-12-10T01:13:57.467Z,2.30
2018-12-10T01:16:26.360Z,2.40
2018-12-10T01:18:55.537Z,2.55
2018-12-10T01:21:24.547Z,2.37
2018-12-10T01:23:53.579Z,2.87
2018-12-10T01:26:22.621Z,2.60
2018-12-10T01:28:51.604Z,2.60
2018-12-10T01:31:20.543Z,2.80
2018-12-10T01:33:49.492Z,2.90
2018-12-10T01:36:18.387Z,2.40
2018-12-10T01:38:47.282Z,2.30
2018-12-10T01:41:16.548Z,2.85
2018-12-10T01:43:45.636Z,2.58
2018-12-10T01:46:14.531Z,2.47
2018-12-10T01:48:43.660Z,2.35
2018-12-10T01:51:12.576Z,2.40
2018-12-10T01:53:41.546Z,2.67
2018-12-10T01:56:10.503Z,2.37
2018-12-10T01:58:39.582Z,2.60
2018-12-10T02:01:08.539Z,2.30
2018-12-10T02:03:37.411Z,2.60
2018-12-10T02:06:06.337Z,2.98
2018-12-10T02:08:35.365Z,2.58
2018-12-10T02:11:04.345Z,2.35
2018-12-10T02:13:33.337Z,2.47
2018-12-10T02:16:02.356Z,2.67
2018-12-10T02:18:31.300Z,2.25
2018-12-10T02:21:00.278Z,2.67
2018-12-10T02:23:29.789Z,2.83
2018-12-10T02:25:58.742Z,3.10
2018-12-10T02:28:33.219Z,2.65
2018-12-10T02:31:02.375Z,2.47
2018-12-10T02:33:31.664Z,2.60
2018-12-10T02:36:00.564Z,2.33
2018-12-10T02:38:29.486Z,2.70
2018-12-10T02:40:58.522Z,2.40
2018-12-10T02:43:27.393Z,2.72
2018-12-10T02:45:56.389Z,2.75
2018-12-10T02:48:25.301Z,2.50
2018-12-10T02:50:54.379Z,2.35
2018-12-10T02:53:23.394Z,2.62
2018-12-10T02:55:52.282Z,2.87
2018-12-10T02:58:21.240Z,2.92
2018-12-10T03:00:50.649Z,3.00
2018-12-10T03:03:19.601Z,2.47
2018-12-10T03:05:48.553Z,3.00
2018-12-10T03:08:17.635Z,2.72
2018-12-10T03:10:47.230Z,2.12
2018-12-10T03:13:16.461Z,2.70
2018-12-10T03:15:45.347Z,2.22
2018-12-10T03:18:14.323Z,2.15
2018-12-10T03:20:43.496Z,1.70
2018-12-10T03:23:12.676Z,2.17
2018-12-10T03:25:41.628Z,1.72
2018-12-10T03:28:10.771Z,1.82
2018-12-10T03:30:39.736Z,2.00
2018-12-10T03:33:08.644Z,2.20
2018-12-10T03:35:37.762Z,2.17
2018-12-10T03:38:06.700Z,2.47
2018-12-10T03:40:35.983Z,2.37
2018-12-10T03:43:05.155Z,2.33
2018-12-10T03:45:34.181Z,2.30
2018-12-10T03:48:03.117Z,2.27
2018-12-10T03:50:32.068Z,2.22
2018-12-10T03:53:01.348Z,2.97
2018-12-10T03:55:30.333Z,2.63
2018-12-10T03:57:59.280Z,2.77
2018-12-10T04:00:28.273Z,2.60
2018-12-10T04:02:57.352Z,2.40
2018-12-10T04:05:26.275Z,2.77
2018-12-10T04:07:55.447Z,2.65
2018-12-10T04:10:24.349Z,2.30
2018-12-10T04:12:53.448Z,2.90
2018-12-10T04:15:22.428Z,3.05
2018-12-10T04:17:51.345Z,2.80
2018-12-10T04:20:20.567Z,2.80
2018-12-10T04:22:49.555Z,2.77
2018-12-10T04:25:20.419Z,2.87
2018-12-10T04:27:49.469Z,3.35
2018-12-10T04:30:18.384Z,2.40
2018-12-10T04:32:47.330Z,2.83
2018-12-10T04:35:16.245Z,3.08
2018-12-10T04:37:45.465Z,2.95
2018-12-10T04:40:14.393Z,3.13
2018-12-10T04:42:43.426Z,3.00
2018-12-10T04:45:12.463Z,3.22
2018-12-10T04:47:41.433Z,2.92
2018-12-10T04:50:10.399Z,2.92
2018-12-10T04:52:39.336Z,3.22
2018-12-10T04:55:08.432Z,4.03
2018-12-10T04:57:37.528Z,3.23
2018-12-10T05:00:08.458Z,3.67
2018-12-10T05:02:44.184Z,3.00
2018-12-10T05:05:13.357Z,3.33
2018-12-10T05:07:42.195Z,2.92
2018-12-10T05:10:11.128Z,2.70
2018-12-10T05:12:39.997Z,3.20
2018-12-10T05:15:08.995Z,3.10
2018-12-10T05:17:38.131Z,3.00
2018-12-10T05:20:07.148Z,3.15
2018-12-10T05:22:36.075Z,3.25
2018-12-10T05:25:05.525Z,3.40
2018-12-10T05:27:34.415Z,3.17
2018-12-10T05:30:03.392Z,3.60
2018-12-10T05:32:33.425Z,3.13
2018-12-10T05:35:02.328Z,3.52
2018-12-10T05:37:31.320Z,3.98
2018-12-10T05:40:00.457Z,3.67
2018-12-10T05:42:29.319Z,3.53
2018-12-10T05:44:58.197Z,3.20
2018-12-10T05:47:27.157Z,3.30
2018-12-10T05:49:56.088Z,3.30
2018-12-10T05:52:25.004Z,3.10
2018-12-10T05:54:54.118Z,3.08
2018-12-10T05:57:23.080Z,2.98
2018-12-10T05:59:53.082Z,3.42
2018-12-10T06:02:22.106Z,2.98
2018-12-10T06:04:51.047Z,3.17
2018-12-10T06:07:19.957Z,3.00
2018-12-10T06:09:48.996Z,2.42
2018-12-10T06:12:19.943Z,2.60
2018-12-10T06:14:48.857Z,2.85
2018-12-10T06:17:17.769Z,2.70
2018-12-10T06:19:47.396Z,3.10
2018-12-10T06:22:16.296Z,3.08
2018-12-10T06:24:45.425Z,3.20
2018-12-10T06:27:15.291Z,3.00
2018-12-10T06:29:44.179Z,2.98
2018-12-10T06:32:13.063Z,3.07
2018-12-10T06:34:42.031Z,3.15
2018-12-10T06:37:10.993Z,2.95
2018-12-10T06:39:39.960Z,2.60
2018-12-10T06:42:08.936Z,2.65
2018-12-10T06:44:38.001Z,3.10
2018-12-10T06:47:06.979Z,2.62
2018-12-10T06:49:35.846Z,2.70
2018-12-10T06:52:04.817Z,2.47
2018-12-10T06:54:33.984Z,2.73
2018-12-10T06:57:03.651Z,2.50
2018-12-10T06:59:32.531Z,3.00
2018-12-10T07:02:01.467Z,2.80
2018-12-10T07:04:30.516Z,2.30
2018-12-10T07:06:59.478Z,2.70
2018-12-10T07:09:28.317Z,2.30
2018-12-10T07:11:57.221Z,2.65
2018-12-10T07:14:26.175Z,2.83
2018-12-10T07:16:55.062Z,2.60
2018-12-10T07:19:25.576Z,2.72
2018-12-10T07:21:54.469Z,2.83
2018-12-10T07:24:23.392Z,2.90
2018-12-10T07:26:52.488Z,2.30
2018-12-10T07:29:21.456Z,2.20
2018-12-10T07:31:50.379Z,2.62
2018-12-10T07:34:19.396Z,2.40
2018-12-10T07:36:48.396Z,2.65
2018-12-10T07:39:17.368Z,2.17
2018-12-10T07:41:46.360Z,2.02
2018-12-10T07:44:15.282Z,2.00
2018-12-10T07:46:44.252Z,2.50
2018-12-10T07:49:13.282Z,2.47
2018-12-10T07:51:42.254Z,2.50
2018-12-10T07:54:11.172Z,2.60
2018-12-10T07:56:40.631Z,2.50
2018-12-10T07:59:09.713Z,2.50
2018-12-10T08:01:39.047Z,3.10
2018-12-10T08:04:07.960Z,2.60
2018-12-10T08:06:36.940Z,3.05
2018-12-10T08:09:06.920Z,2.70
2018-12-10T08:11:36.167Z,3.20
2018-12-10T08:14:05.192Z,2.55
2018-12-10T08:16:34.199Z,2.72
2018-12-10T08:19:03.146Z,2.80
2018-12-10T08:21:32.298Z,2.67
2018-12-10T08:24:02.322Z,2.85
2018-12-10T08:26:31.584Z,3.10
2018-12-10T08:29:07.519Z,2.73
2018-12-10T08:31:31.575Z,2.77
2018-12-10T08:34:00.493Z,2.60
2018-12-10T08:36:29.688Z,2.60
2018-12-10T08:38:58.575Z,2.52
2018-12-10T08:41:27.516Z,2.50
2018-12-10T08:43:56.466Z,2.92
2018-12-10T08:46:25.737Z,2.62
2018-12-10T08:48:55.219Z,2.35
2018-12-10T08:51:24.274Z,2.53
2018-12-10T08:53:54.697Z,2.58
2018-12-10T08:56:23.684Z,2.87
2018-12-10T08:58:52.606Z,2.90
2018-12-10T09:01:21.706Z,2.40
2018-12-10T09:03:50.768Z,3.02
2018-12-10T09:06:19.931Z,3.00
2018-12-10T09:08:48.915Z,2.80
2018-12-10T09:11:17.852Z,3.30
2018-12-10T09:13:47.068Z,2.90
2018-12-10T09:16:16.006Z,2.90
2018-12-10T09:18:45.001Z,3.08
2018-12-10T09:21:13.999Z,3.08
2018-12-10T09:23:43.274Z,2.87
2018-12-10T09:26:12.376Z,3.70
2018-12-10T09:28:41.325Z,3.05
2018-12-10T09:31:10.222Z,2.40
2018-12-10T09:33:39.169Z,2.50
2018-12-10T09:36:08.184Z,2.80
2018-12-10T09:38:37.450Z,2.60
2018-12-10T09:41:06.393Z,2.25
2018-12-10T09:43:35.356Z,2.52
2018-12-10T09:46:04.372Z,2.80
2018-12-10T09:48:33.315Z,2.95
2018-12-10T09:51:02.387Z,2.70
2018-12-10T09:53:31.356Z,2.50
2018-12-10T09:56:00.579Z,2.80
2018-12-10T09:58:29.512Z,2.90
2018-12-10T10:00:58.531Z,2.55
2018-12-10T10:03:27.443Z,2.65
2018-12-10T10:05:56.339Z,2.50
2018-12-10T10:08:25.568Z,2.77
2018-12-10T10:10:54.515Z,2.62
2018-12-10T10:13:23.591Z,3.12
2018-12-10T10:15:52.823Z,3.12
2018-12-10T10:18:21.823Z,3.05
2018-12-10T10:20:50.943Z,2.40
2018-12-10T10:23:20.059Z,2.80
2018-12-10T10:25:49.009Z,2.47
2018-12-10T10:28:17.970Z,2.72
2018-12-10T10:30:46.865Z,2.27
2018-12-10T10:33:15.752Z,2.55
2018-12-10T10:35:44.678Z,2.75
2018-12-10T10:38:15.179Z,2.47
2018-12-10T10:40:44.188Z,2.37
2018-12-10T10:43:13.042Z,2.58
2018-12-10T10:45:41.911Z,2.30
2018-12-10T10:48:10.905Z,2.33
2018-12-10T10:50:39.831Z,2.27
2018-12-10T10:53:08.749Z,2.40
2018-12-10T10:55:37.833Z,2.42
2018-12-10T10:58:06.804Z,2.30
2018-12-10T11:00:41.205Z,2.40
2018-12-10T11:03:15.472Z,2.20
2018-12-10T11:05:44.473Z,2.95
2018-12-10T11:08:13.327Z,2.37
2018-12-10T11:10:42.265Z,2.47
2018-12-10T11:13:11.425Z,3.12
2018-12-10T11:15:40.288Z,2.33
2018-12-10T11:18:09.564Z,2.35
2018-12-10T11:20:38.645Z,2.40
2018-12-10T11:23:07.622Z,2.12
2018-12-10T11:25:36.496Z,2.40
2018-12-10T11:28:05.770Z,2.40
2018-12-10T11:30:34.741Z,2.30
2018-12-10T11:33:03.816Z,2.42
2018-12-10T11:35:32.762Z,2.87
2018-12-10T11:38:01.737Z,2.42
2018-12-10T11:40:30.805Z,1.92
2018-12-10T11:42:59.729Z,1.92
2018-12-10T11:45:28.718Z,1.90
2018-12-10T11:47:57.657Z,2.05
2018-12-10T11:50:27.645Z,1.98
2018-12-10T11:52:56.568Z,2.02
2018-12-10T11:55:25.826Z,2.10
2018-12-10T11:57:54.744Z,2.10
2018-12-10T12:00:23.719Z,1.80
2018-12-10T12:02:52.817Z,1.90
2018-12-10T12:05:21.898Z,2.10
2018-12-10T12:07:50.902Z,1.90
2018-12-10T12:10:20.340Z,1.98
2018-12-10T12:12:49.314Z,1.92
2018-12-10T12:15:18.231Z,1.82
2018-12-10T12:17:47.104Z,1.90
2018-12-10T12:20:16.041Z,2.02
2018-12-10T12:22:44.934Z,1.90
2018-12-10T12:25:14.197Z,1.90
2018-12-10T12:27:43.228Z,1.90
2018-12-10T12:30:12.211Z,2.00
2018-12-10T12:32:41.156Z,2.00
2018-12-10T12:35:10.474Z,2.00
2018-12-10T12:37:40.428Z,2.15
2018-12-10T12:40:09.485Z,2.05
2018-12-10T12:42:39.445Z,2.08
2018-12-10T12:45:08.461Z,2.10
2018-12-10T12:47:37.354Z,2.33
2018-12-10T12:50:07.541Z,2.47
2018-12-10T12:52:36.497Z,2.27
2018-12-10T12:55:05.900Z,2.52
2018-12-10T12:57:34.828Z,2.42
2018-12-10T13:00:04.128Z,2.50
2018-12-10T13:02:33.010Z,2.30
2018-12-10T13:05:02.076Z,2.55
2018-12-10T13:07:32.038Z,2.35
2018-12-10T13:10:00.942Z,2.33
2018-12-10T13:12:29.911Z,2.30
2018-12-10T13:14:58.841Z,2.30
2018-12-10T13:17:27.812Z,2.58
2018-12-10T13:19:56.733Z,2.27
2018-12-10T13:22:25.718Z,2.50
2018-12-10T13:24:54.615Z,2.15
2018-12-10T13:27:23.648Z,3.00
2018-12-10T13:29:52.575Z,2.90
2018-12-10T13:32:21.628Z,2.33
2018-12-10T13:34:50.592Z,2.40
2018-12-10T13:37:19.459Z,2.70
2018-12-10T13:39:48.326Z,2.40
2018-12-10T13:42:17.268Z,2.57
2018-12-10T13:44:46.369Z,2.40
2018-12-10T13:47:15.343Z,2.77
2018-12-10T13:49:44.254Z,2.43
2018-12-10T13:52:13.405Z,2.67
2018-12-10T13:54:42.450Z,2.58
2018-12-10T13:57:11.380Z,2.70
2018-12-10T13:59:40.274Z,2.60
2018-12-10T14:02:09.200Z,2.50
2018-12-10T14:04:49.215Z,2.50
2018-12-10T14:07:18.302Z,2.45
2018-12-10T14:09:47.212Z,2.33
2018-12-10T14:12:16.099Z,2.40
2018-12-10T14:14:45.044Z,2.35
2018-12-10T14:17:14.093Z,2.70
2018-12-10T14:19:43.004Z,2.90
2018-12-10T14:22:11.895Z,2.52
2018-12-10T14:24:40.790Z,2.40
2018-12-10T14:27:09.744Z,2.85
2018-12-10T14:29:38.787Z,2.40
2018-12-10T14:32:07.924Z,3.20
2018-12-10T14:34:36.874Z,2.60
2018-12-10T14:37:08.751Z,2.45
2018-12-10T14:39:37.784Z,2.83
2018-12-10T14:42:15.004Z,2.40
2018-12-10T14:44:44.090Z,2.20
2018-12-10T14:47:13.103Z,2.30
2018-12-10T14:49:42.079Z,2.45
2018-12-10T14:52:11.086Z,2.40
2018-12-10T14:54:40.259Z,3.65
2018-12-10T14:57:09.393Z,2.95
2018-12-10T14:59:38.280Z,2.90
2018-12-10T15:02:07.341Z,3.05
2018-12-10T15:04:36.312Z,2.92
2018-12-10T15:07:05.275Z,3.27
2018-12-10T15:09:34.192Z,3.03
2018-12-10T15:12:03.159Z,3.22
2018-12-10T15:14:32.128Z,3.12
2018-12-10T15:17:00.983Z,3.22
2018-12-10T15:19:29.887Z,3.52
2018-12-10T15:21:58.794Z,2.87
2018-12-10T15:24:27.688Z,2.98
2018-12-10T15:26:56.603Z,3.55
2018-12-10T15:29:25.489Z,3.30
2018-12-10T15:31:54.464Z,3.65
2018-12-10T15:34:23.456Z,3.53
2018-12-10T15:36:52.338Z,3.90
2018-12-10T15:39:21.467Z,3.60
2018-12-10T15:41:50.468Z,3.50
2018-12-10T15:44:19.388Z,3.30
2018-12-10T15:46:48.289Z,3.70
2018-12-10T15:49:17.361Z,2.90
2018-12-10T15:51:46.293Z,2.52
2018-12-10T15:54:15.261Z,3.02
2018-12-10T15:56:44.305Z,2.50
2018-12-10T15:59:13.254Z,2.80
2018-12-10T16:01:42.139Z,2.52
2018-12-10T16:04:11.157Z,2.43
2018-12-10T16:06:40.112Z,2.50
2018-12-10T16:09:09.118Z,2.55
2018-12-10T16:11:38.156Z,2.27
2018-12-10T16:14:07.104Z,2.15
2018-12-10T16:16:36.027Z,2.20
2018-12-10T16:19:05.356Z,2.07
2018-12-10T16:21:34.415Z,2.20
2018-12-10T16:24:04.527Z,2.33
2018-12-10T16:26:33.413Z,2.20
2018-12-10T16:29:02.397Z,2.62
2018-12-10T16:31:31.297Z,2.80
2018-12-10T16:34:00.208Z,2.60
2018-12-10T16:36:29.199Z,2.90
2018-12-10T16:38:58.117Z,3.02
2018-12-10T16:41:27.027Z,3.33
2018-12-10T16:43:56.023Z,2.17
2018-12-10T16:46:25.112Z,2.55
2018-12-10T16:48:54.119Z,2.83
2018-12-10T16:51:23.040Z,3.33
2018-12-10T16:53:51.963Z,3.15
2018-12-10T16:56:20.908Z,3.00
2018-12-10T16:58:50.970Z,3.02
2018-12-10T17:01:19.963Z,3.15
2018-12-10T17:03:49.914Z,3.80
2018-12-10T17:06:18.792Z,3.60
2018-12-10T17:08:47.711Z,3.60
2018-12-10T17:11:16.784Z,3.37
2018-12-10T17:13:45.671Z,3.63
2018-12-10T17:16:14.602Z,3.70
2018-12-10T17:18:43.565Z,4.00
2018-12-10T17:21:12.480Z,3.50
2018-12-10T17:23:41.328Z,4.28
2018-12-10T17:26:10.577Z,4.72
2018-12-10T17:28:39.411Z,4.10
2018-12-10T17:31:08.495Z,4.00
2018-12-10T17:33:37.423Z,3.85
2018-12-10T17:36:06.332Z,3.50
2018-12-10T17:38:35.261Z,3.65
2018-12-10T17:41:06.716Z,5.90
2018-12-10T17:43:35.655Z,5.17
2018-12-10T17:46:04.543Z,4.20
2018-12-10T17:48:33.457Z,4.60
2018-12-10T17:51:02.562Z,4.30
2018-12-10T17:53:31.488Z,4.80
2018-12-10T17:56:00.432Z,4.50
2018-12-10T17:58:29.390Z,4.20
2018-12-10T18:00:58.351Z,4.50
2018-12-10T18:03:27.360Z,4.80
2018-12-10T18:05:56.517Z,4.67
2018-12-10T18:08:25.409Z,4.67
2018-12-10T18:10:54.349Z,4.90
2018-12-10T18:13:23.275Z,4.62
2018-12-10T18:15:52.308Z,4.58
2018-12-10T18:18:21.284Z,4.50
2018-12-10T18:20:50.300Z,4.97
2018-12-10T18:23:19.779Z,4.30
2018-12-10T18:25:48.692Z,5.03
2018-12-10T18:28:17.600Z,4.55
2018-12-10T18:30:46.644Z,5.28
2018-12-10T18:33:15.597Z,4.80
2018-12-10T18:35:44.597Z,5.28
2018-12-10T18:38:13.682Z,4.70
2018-12-10T18:40:42.750Z,5.53
2018-12-10T18:43:12.193Z,4.87
2018-12-10T18:45:41.174Z,4.93
2018-12-10T18:48:10.303Z,5.03
2018-12-10T18:50:39.320Z,4.78
2018-12-10T18:53:09.227Z,4.70
2018-12-10T18:55:38.248Z,4.72
2018-12-10T18:58:07.283Z,4.60
2018-12-10T19:00:36.210Z,4.42
2018-12-10T19:03:05.566Z,4.80
2018-12-10T19:05:34.609Z,4.10
2018-12-10T19:08:03.609Z,4.47
2018-12-10T19:10:32.719Z,4.00
2018-12-10T19:13:01.906Z,3.92
2018-12-10T19:15:30.852Z,4.13
2018-12-10T19:18:00.936Z,4.00
2018-12-10T19:20:29.930Z,3.35
2018-12-10T19:22:59.085Z,3.80
2018-12-10T19:25:27.996Z,3.00
2018-12-10T19:27:56.961Z,3.12
2018-12-10T19:30:25.806Z,2.83
2018-12-10T19:32:54.745Z,4.10
2018-12-10T19:35:23.698Z,4.08
2018-12-10T19:37:52.675Z,3.62
2018-12-10T19:40:21.700Z,3.12
2018-12-10T19:42:50.663Z,4.30
2018-12-10T19:45:19.641Z,3.90
2018-12-10T19:47:48.555Z,3.80
2018-12-10T19:50:17.557Z,3.62
2018-12-10T19:52:46.568Z,4.03
2018-12-10T19:55:15.617Z,3.75
2018-12-10T19:57:44.643Z,3.90
2018-12-10T20:00:13.876Z,4.17
2018-12-10T20:02:42.845Z,4.25
2018-12-10T20:05:11.824Z,3.70
2018-12-10T20:07:40.748Z,3.72
2018-12-10T20:10:10.542Z,3.67
2018-12-10T20:12:39.464Z,3.50
2018-12-10T20:15:09.304Z,3.60
2018-12-10T20:17:38.284Z,3.58
2018-12-10T20:20:08.628Z,4.00
2018-12-10T20:22:37.637Z,4.05
2018-12-10T20:25:06.940Z,4.20
2018-12-10T20:27:35.963Z,4.15
2018-12-10T20:30:06.187Z,3.65
2018-12-10T20:32:35.290Z,3.67
2018-12-10T20:35:04.932Z,4.05
2018-12-10T20:37:34.038Z,4.15
2018-12-10T20:40:03.503Z,3.60
2018-12-10T20:42:32.351Z,3.50
2018-12-10T20:45:01.337Z,3.77
2018-12-10T20:47:30.211Z,3.50
2018-12-10T20:49:59.079Z,3.60
2018-12-10T20:52:27.997Z,4.00
2018-12-10T20:54:56.957Z,3.80
2018-12-10T20:57:25.987Z,3.83
2018-12-10T20:59:55.008Z,4.58
2018-12-10T21:02:29.107Z,4.75
2018-12-10T21:04:54.766Z,4.20
2018-12-10T21:07:23.750Z,3.90
2018-12-10T21:09:52.929Z,4.20
2018-12-10T21:12:21.891Z,4.03
2018-12-10T21:14:51.034Z,4.08
2018-12-10T21:17:19.902Z,3.70
2018-12-10T21:19:49.007Z,4.20
2018-12-10T21:22:17.994Z,4.20
2018-12-10T21:24:46.954Z,3.77
2018-12-10T21:27:15.851Z,3.87
2018-12-10T21:29:44.824Z,4.17
2018-12-10T21:32:13.710Z,3.72
2018-12-10T21:34:42.648Z,3.67
2018-12-10T21:37:11.574Z,3.60
2018-12-10T21:39:40.643Z,3.83
2018-12-10T21:42:09.785Z,4.03
2018-12-10T21:44:38.785Z,4.25
2018-12-10T21:47:07.676Z,3.95
2018-12-10T21:49:37.493Z,3.80
2018-12-10T21:52:07.250Z,3.80
2018-12-10T21:54:36.136Z,3.90
2018-12-10T21:57:05.830Z,3.55
2018-12-10T21:59:34.921Z,4.30
2018-12-10T22:02:04.163Z,4.00
2018-12-10T22:04:33.125Z,3.52
2018-12-10T22:07:02.112Z,4.08
2018-12-10T22:09:32.125Z,3.85
2018-12-10T22:12:01.236Z,3.98
2018-12-10T22:14:30.353Z,4.70
2018-12-10T22:16:59.393Z,3.70
2018-12-10T22:19:28.312Z,3.37
2018-12-10T22:21:57.510Z,4.17
2018-12-10T22:24:26.400Z,3.77
2018-12-10T22:26:55.308Z,4.35
2018-12-10T22:29:24.485Z,3.35
2018-12-10T22:31:53.422Z,3.95
2018-12-10T22:34:22.283Z,4.12
2018-12-10T22:36:51.192Z,3.80
2018-12-10T22:39:22.267Z,3.85
2018-12-10T22:41:51.179Z,3.98
2018-12-10T22:44:21.237Z,3.40
2018-12-10T22:46:50.289Z,4.10
2018-12-10T22:49:19.197Z,3.30
2018-12-10T22:51:48.279Z,3.52
2018-12-10T22:54:17.207Z,3.72
2018-12-10T22:56:46.228Z,3.50
2018-12-10T22:59:15.092Z,3.83
2018-12-10T23:01:44.952Z,3.70
2018-12-10T23:04:14.367Z,3.50
2018-12-10T23:06:43.283Z,3.17
2018-12-10T23:09:12.291Z,3.70
2018-12-10T23:11:41.152Z,3.27
2018-12-10T23:14:10.016Z,3.25
2018-12-10T23:16:40.020Z,3.40
2018-12-10T23:19:09.033Z,3.50
2018-12-10T23:21:37.948Z,3.50
2018-12-10T23:24:06.840Z,3.15
2018-12-10T23:26:35.848Z,3.67
2018-12-10T23:29:05.819Z,3.58
2018-12-10T23:31:34.715Z,2.90
2018-12-10T23:34:03.782Z,3.27
2018-12-10T23:36:32.691Z,3.22
2018-12-10T23:39:01.583Z,2.98
2018-12-10T23:41:30.494Z,3.08
2018-12-10T23:43:59.448Z,3.15
2018-12-10T23:46:31.940Z,3.10
2018-12-10T23:49:01.172Z,3.55
2018-12-10T23:51:31.298Z,3.10
2018-12-10T23:54:00.139Z,3.37
2018-12-10T23:56:29.048Z,3.05
2018-12-10T23:58:57.896Z,2.95
